sensor_id;sensor_type;location;lat;lon;timestamp;P1;durP1;ratioP1;P2;durP2;ratioP2
12768;SDS011;6448;48.916;8.990;2024-03-02T00:00:58;8.10;;;7.40;;
12768;SDS011;6448;48.916;8.990;2024-03-02T00:01:59;7.87;;;7.27;;
12768;SDS011;6448;48.916;8.990;2024-03-02T00:03:01;7.55;;;6.95;;
12768;SDS011;6448;48.916;8.990;2024-03-02T00:04:03;7.70;;;7.00;;
12768;SDS011;6448;48.916;8.990;2024-03-02T00:05:07;6.97;;;6.38;;
12768;SDS011;6448;48.916;8.990;2024-03-02T00:06:08;6.90;;;6.30;;
12768;SDS011;6448;48.916;8.990;2024-03-02T00:07:09;7.15;;;6.55;;
12768;SDS011;6448;48.916;8.990;2024-03-02T00:08:15;6.65;;;6.15;;
12768;SDS011;6448;48.916;8.990;2024-03-02T00:09:23;6.88;;;6.28;;
12768;SDS011;6448;48.916;8.990;2024-03-02T00:10:25;6.45;;;5.95;;
12768;SDS011;6448;48.916;8.990;2024-03-02T00:11:30;7.60;;;6.93;;
12768;SDS011;6448;48.916;8.990;2024-03-02T00:12:34;7.50;;;6.90;;
12768;SDS011;6448;48.916;8.990;2024-03-02T00:13:36;8.63;;;7.93;;
12768;SDS011;6448;48.916;8.990;2024-03-02T00:14:37;8.80;;;8.10;;
12768;SDS011;6448;48.916;8.990;2024-03-02T00:15:42;9.15;;;8.35;;
12768;SDS011;6448;48.916;8.990;2024-03-02T00:16:46;8.90;;;8.20;;
12768;SDS011;6448;48.916;8.990;2024-03-02T00:17:51;9.30;;;8.50;;
12768;SDS011;6448;48.916;8.990;2024-03-02T00:18:53;7.85;;;7.25;;
12768;SDS011;6448;48.916;8.990;2024-03-02T00:19:55;7.80;;;7.20;;
12768;SDS011;6448;48.916;8.990;2024-03-02T00:20:55;7.38;;;6.78;;
12768;SDS011;6448;48.916;8.990;2024-03-02T00:21:58;6.47;;;5.97;;
12768;SDS011;6448;48.916;8.990;2024-03-02T00:23:03;6.00;;;5.50;;
12768;SDS011;6448;48.916;8.990;2024-03-02T00:24:09;5.85;;;5.25;;
12768;SDS011;6448;48.916;8.990;2024-03-02T00:25:21;5.72;;;5.22;;
12768;SDS011;6448;48.916;8.990;2024-03-02T00:26:22;6.15;;;5.65;;
12768;SDS011;6448;48.916;8.990;2024-03-02T00:27:23;5.82;;;5.32;;
12768;SDS011;6448;48.916;8.990;2024-03-02T00:28:25;6.10;;;5.60;;
12768;SDS011;6448;48.916;8.990;2024-03-02T00:29:27;5.97;;;5.50;;
12768;SDS011;6448;48.916;8.990;2024-03-02T00:30:40;6.32;;;5.82;;
12768;SDS011;6448;48.916;8.990;2024-03-02T00:31:51;5.82;;;5.22;;
12768;SDS011;6448;48.916;8.990;2024-03-02T00:32:53;5.13;;;4.72;;
12768;SDS011;6448;48.916;8.990;2024-03-02T00:33:54;5.10;;;4.70;;
12768;SDS011;6448;48.916;8.990;2024-03-02T00:34:56;5.20;;;4.80;;
12768;SDS011;6448;48.916;8.990;2024-03-02T00:35:57;5.20;;;4.80;;
12768;SDS011;6448;48.916;8.990;2024-03-02T00:36:59;4.90;;;4.50;;
12768;SDS011;6448;48.916;8.990;2024-03-02T00:38:03;4.70;;;4.35;;
12768;SDS011;6448;48.916;8.990;2024-03-02T00:39:04;4.57;;;4.18;;
12768;SDS011;6448;48.916;8.990;2024-03-02T00:40:10;4.30;;;4.00;;
12768;SDS011;6448;48.916;8.990;2024-03-02T00:41:17;4.15;;;3.85;;
12768;SDS011;6448;48.916;8.990;2024-03-02T00:42:23;4.60;;;4.30;;
12768;SDS011;6448;48.916;8.990;2024-03-02T00:43:43;4.40;;;4.10;;
12768;SDS011;6448;48.916;8.990;2024-03-02T00:44:48;4.50;;;4.20;;
12768;SDS011;6448;48.916;8.990;2024-03-02T00:45:49;4.40;;;4.10;;
12768;SDS011;6448;48.916;8.990;2024-03-02T00:46:50;4.60;;;4.27;;
12768;SDS011;6448;48.916;8.990;2024-03-02T00:47:51;4.57;;;4.27;;
12768;SDS011;6448;48.916;8.990;2024-03-02T00:48:54;4.90;;;4.50;;
12768;SDS011;6448;48.916;8.990;2024-03-02T00:49:56;5.68;;;5.25;;
12768;SDS011;6448;48.916;8.990;2024-03-02T00:50:57;5.93;;;5.43;;
12768;SDS011;6448;48.916;8.990;2024-03-02T00:51:58;5.35;;;4.95;;
12768;SDS011;6448;48.916;8.990;2024-03-02T00:53:01;5.65;;;5.25;;
12768;SDS011;6448;48.916;8.990;2024-03-02T00:54:03;5.57;;;5.15;;
12768;SDS011;6448;48.916;8.990;2024-03-02T00:55:06;5.40;;;5.00;;
12768;SDS011;6448;48.916;8.990;2024-03-02T00:56:10;5.65;;;5.25;;
12768;SDS011;6448;48.916;8.990;2024-03-02T00:57:12;5.80;;;5.30;;
12768;SDS011;6448;48.916;8.990;2024-03-02T00:58:14;5.53;;;5.03;;
12768;SDS011;6448;48.916;8.990;2024-03-02T00:59:15;5.53;;;5.13;;
12768;SDS011;6448;48.916;8.990;2024-03-02T01:00:17;5.85;;;5.40;;
12768;SDS011;6448;48.916;8.990;2024-03-02T01:01:18;6.00;;;5.50;;
12768;SDS011;6448;48.916;8.990;2024-03-02T01:02:20;6.20;;;5.70;;
12768;SDS011;6448;48.916;8.990;2024-03-02T01:03:21;6.30;;;5.80;;
12768;SDS011;6448;48.916;8.990;2024-03-02T01:04:22;6.13;;;5.70;;
12768;SDS011;6448;48.916;8.990;2024-03-02T01:05:24;6.55;;;6.05;;
12768;SDS011;6448;48.916;8.990;2024-03-02T01:06:24;6.70;;;6.20;;
12768;SDS011;6448;48.916;8.990;2024-03-02T01:07:26;6.82;;;6.30;;
12768;SDS011;6448;48.916;8.990;2024-03-02T01:08:27;7.07;;;6.47;;
12768;SDS011;6448;48.916;8.990;2024-03-02T01:09:28;6.47;;;5.97;;
12768;SDS011;6448;48.916;8.990;2024-03-02T01:10:30;6.80;;;6.20;;
12768;SDS011;6448;48.916;8.990;2024-03-02T01:11:32;6.47;;;5.97;;
12768;SDS011;6448;48.916;8.990;2024-03-02T01:12:34;6.30;;;5.80;;
12768;SDS011;6448;48.916;8.990;2024-03-02T01:13:34;6.35;;;5.85;;
12768;SDS011;6448;48.916;8.990;2024-03-02T01:14:36;6.20;;;5.70;;
12768;SDS011;6448;48.916;8.990;2024-03-02T01:15:37;6.10;;;5.65;;
12768;SDS011;6448;48.916;8.990;2024-03-02T01:16:38;6.20;;;5.70;;
12768;SDS011;6448;48.916;8.990;2024-03-02T01:17:40;6.35;;;5.85;;
12768;SDS011;6448;48.916;8.990;2024-03-02T01:18:41;6.72;;;6.22;;
12768;SDS011;6448;48.916;8.990;2024-03-02T01:19:43;6.60;;;6.10;;
12768;SDS011;6448;48.916;8.990;2024-03-02T01:20:43;6.87;;;6.27;;
12768;SDS011;6448;48.916;8.990;2024-03-02T01:21:44;6.40;;;5.87;;
12768;SDS011;6448;48.916;8.990;2024-03-02T01:22:46;7.10;;;6.50;;
12768;SDS011;6448;48.916;8.990;2024-03-02T01:23:47;6.53;;;6.03;;
12768;SDS011;6448;48.916;8.990;2024-03-02T01:24:48;6.10;;;5.60;;
12768;SDS011;6448;48.916;8.990;2024-03-02T01:25:50;6.13;;;5.63;;
12768;SDS011;6448;48.916;8.990;2024-03-02T01:26:52;6.20;;;5.70;;
12768;SDS011;6448;48.916;8.990;2024-03-02T01:27:53;5.68;;;5.18;;
12768;SDS011;6448;48.916;8.990;2024-03-02T01:28:54;5.55;;;5.15;;
12768;SDS011;6448;48.916;8.990;2024-03-02T01:29:56;5.40;;;4.90;;
12768;SDS011;6448;48.916;8.990;2024-03-02T01:30:57;5.40;;;4.90;;
12768;SDS011;6448;48.916;8.990;2024-03-02T01:31:58;5.20;;;4.80;;
12768;SDS011;6448;48.916;8.990;2024-03-02T01:32:59;5.50;;;5.10;;
12768;SDS011;6448;48.916;8.990;2024-03-02T01:34:02;5.20;;;4.80;;
12768;SDS011;6448;48.916;8.990;2024-03-02T01:35:04;5.53;;;5.05;;
12768;SDS011;6448;48.916;8.990;2024-03-02T01:36:05;5.50;;;5.10;;
12768;SDS011;6448;48.916;8.990;2024-03-02T01:37:08;5.50;;;5.10;;
12768;SDS011;6448;48.916;8.990;2024-03-02T01:38:10;5.53;;;5.13;;
12768;SDS011;6448;48.916;8.990;2024-03-02T01:39:11;5.57;;;5.15;;
12768;SDS011;6448;48.916;8.990;2024-03-02T01:40:12;6.03;;;5.53;;
12768;SDS011;6448;48.916;8.990;2024-03-02T01:41:13;5.40;;;5.00;;
12768;SDS011;6448;48.916;8.990;2024-03-02T01:42:16;5.40;;;5.00;;
12768;SDS011;6448;48.916;8.990;2024-03-02T01:43:17;5.28;;;4.88;;
12768;SDS011;6448;48.916;8.990;2024-03-02T01:44:19;5.50;;;5.10;;
12768;SDS011;6448;48.916;8.990;2024-03-02T01:45:19;5.15;;;4.75;;
12768;SDS011;6448;48.916;8.990;2024-03-02T01:46:20;5.43;;;5.03;;
12768;SDS011;6448;48.916;8.990;2024-03-02T01:47:22;5.13;;;4.72;;
12768;SDS011;6448;48.916;8.990;2024-03-02T01:48:23;5.18;;;4.78;;
12768;SDS011;6448;48.916;8.990;2024-03-02T01:49:24;5.17;;;4.77;;
12768;SDS011;6448;48.916;8.990;2024-03-02T01:50:26;5.40;;;5.00;;
12768;SDS011;6448;48.916;8.990;2024-03-02T01:51:28;5.45;;;5.05;;
12768;SDS011;6448;48.916;8.990;2024-03-02T01:52:29;5.20;;;4.80;;
12768;SDS011;6448;48.916;8.990;2024-03-02T01:53:31;5.05;;;4.65;;
12768;SDS011;6448;48.916;8.990;2024-03-02T01:54:32;4.78;;;4.43;;
12768;SDS011;6448;48.916;8.990;2024-03-02T01:55:34;5.20;;;4.80;;
12768;SDS011;6448;48.916;8.990;2024-03-02T01:56:35;4.75;;;4.35;;
12768;SDS011;6448;48.916;8.990;2024-03-02T01:57:38;6.18;;;5.63;;
12768;SDS011;6448;48.916;8.990;2024-03-02T01:58:39;6.20;;;5.70;;
12768;SDS011;6448;48.916;8.990;2024-03-02T01:59:41;6.32;;;5.82;;
12768;SDS011;6448;48.916;8.990;2024-03-02T02:00:42;6.33;;;5.83;;
12768;SDS011;6448;48.916;8.990;2024-03-02T02:01:45;6.00;;;5.50;;
12768;SDS011;6448;48.916;8.990;2024-03-02T02:02:45;6.10;;;5.60;;
12768;SDS011;6448;48.916;8.990;2024-03-02T02:03:48;6.20;;;5.70;;
12768;SDS011;6448;48.916;8.990;2024-03-02T02:04:49;5.90;;;5.50;;
12768;SDS011;6448;48.916;8.990;2024-03-02T02:05:50;6.75;;;6.20;;
12768;SDS011;6448;48.916;8.990;2024-03-02T02:06:51;6.13;;;5.63;;
12768;SDS011;6448;48.916;8.990;2024-03-02T02:07:53;5.90;;;5.40;;
12768;SDS011;6448;48.916;8.990;2024-03-02T02:08:54;5.90;;;5.47;;
12768;SDS011;6448;48.916;8.990;2024-03-02T02:09:55;6.00;;;5.50;;
12768;SDS011;6448;48.916;8.990;2024-03-02T02:10:56;5.88;;;5.38;;
12768;SDS011;6448;48.916;8.990;2024-03-02T02:11:58;5.28;;;4.88;;
12768;SDS011;6448;48.916;8.990;2024-03-02T02:13:00;5.28;;;4.88;;
12768;SDS011;6448;48.916;8.990;2024-03-02T02:14:02;5.78;;;5.28;;
12768;SDS011;6448;48.916;8.990;2024-03-02T02:15:03;5.90;;;5.40;;
12768;SDS011;6448;48.916;8.990;2024-03-02T02:16:22;6.40;;;5.90;;
12768;SDS011;6448;48.916;8.990;2024-03-02T02:17:22;6.00;;;5.50;;
12768;SDS011;6448;48.916;8.990;2024-03-02T02:18:24;6.25;;;5.75;;
12768;SDS011;6448;48.916;8.990;2024-03-02T02:20:57;5.82;;;5.43;;
12768;SDS011;6448;48.916;8.990;2024-03-02T02:21:59;6.40;;;5.90;;
12768;SDS011;6448;48.916;8.990;2024-03-02T02:23:01;6.33;;;5.83;;
12768;SDS011;6448;48.916;8.990;2024-03-02T02:24:03;5.50;;;5.10;;
12768;SDS011;6448;48.916;8.990;2024-03-02T02:25:05;5.50;;;5.10;;
12768;SDS011;6448;48.916;8.990;2024-03-02T02:26:06;5.60;;;5.20;;
12768;SDS011;6448;48.916;8.990;2024-03-02T02:27:08;5.47;;;4.97;;
12768;SDS011;6448;48.916;8.990;2024-03-02T02:28:09;5.57;;;5.18;;
12768;SDS011;6448;48.916;8.990;2024-03-02T02:29:11;5.00;;;4.60;;
12768;SDS011;6448;48.916;8.990;2024-03-02T02:30:12;5.07;;;4.68;;
12768;SDS011;6448;48.916;8.990;2024-03-02T02:31:13;4.93;;;4.53;;
12768;SDS011;6448;48.916;8.990;2024-03-02T02:32:15;4.82;;;4.43;;
12768;SDS011;6448;48.916;8.990;2024-03-02T02:33:17;4.82;;;4.43;;
12768;SDS011;6448;48.916;8.990;2024-03-02T02:34:19;4.85;;;4.45;;
12768;SDS011;6448;48.916;8.990;2024-03-02T02:35:20;5.05;;;4.65;;
12768;SDS011;6448;48.916;8.990;2024-03-02T02:36:21;5.28;;;4.88;;
12768;SDS011;6448;48.916;8.990;2024-03-02T02:37:24;5.10;;;4.70;;
12768;SDS011;6448;48.916;8.990;2024-03-02T02:38:25;5.05;;;4.65;;
12768;SDS011;6448;48.916;8.990;2024-03-02T02:39:26;5.20;;;4.80;;
12768;SDS011;6448;48.916;8.990;2024-03-02T02:40:28;5.20;;;4.70;;
12768;SDS011;6448;48.916;8.990;2024-03-02T02:41:30;5.00;;;4.60;;
12768;SDS011;6448;48.916;8.990;2024-03-02T02:42:32;5.10;;;4.70;;
12768;SDS011;6448;48.916;8.990;2024-03-02T02:43:33;5.20;;;4.80;;
12768;SDS011;6448;48.916;8.990;2024-03-02T02:44:34;5.25;;;4.85;;
12768;SDS011;6448;48.916;8.990;2024-03-02T02:45:37;5.10;;;4.70;;
12768;SDS011;6448;48.916;8.990;2024-03-02T02:46:39;5.32;;;4.93;;
12768;SDS011;6448;48.916;8.990;2024-03-02T02:47:40;5.40;;;5.00;;
12768;SDS011;6448;48.916;8.990;2024-03-02T02:48:42;5.65;;;5.22;;
12768;SDS011;6448;48.916;8.990;2024-03-02T02:49:43;5.68;;;5.28;;
12768;SDS011;6448;48.916;8.990;2024-03-02T02:50:45;6.20;;;5.70;;
12768;SDS011;6448;48.916;8.990;2024-03-02T02:51:46;6.03;;;5.53;;
12768;SDS011;6448;48.916;8.990;2024-03-02T02:52:49;5.78;;;5.38;;
12768;SDS011;6448;48.916;8.990;2024-03-02T02:53:50;5.65;;;5.25;;
12768;SDS011;6448;48.916;8.990;2024-03-02T02:54:51;5.53;;;5.13;;
12768;SDS011;6448;48.916;8.990;2024-03-02T02:55:53;6.25;;;5.75;;
12768;SDS011;6448;48.916;8.990;2024-03-02T02:56:54;6.03;;;5.60;;
12768;SDS011;6448;48.916;8.990;2024-03-02T02:57:55;6.10;;;5.60;;
12768;SDS011;6448;48.916;8.990;2024-03-02T02:58:56;6.00;;;5.53;;
12768;SDS011;6448;48.916;8.990;2024-03-02T02:59:58;5.95;;;5.55;;
12768;SDS011;6448;48.916;8.990;2024-03-02T03:00:59;5.75;;;5.35;;
12768;SDS011;6448;48.916;8.990;2024-03-02T03:02:05;5.93;;;5.53;;
12768;SDS011;6448;48.916;8.990;2024-03-02T03:03:06;5.80;;;5.40;;
12768;SDS011;6448;48.916;8.990;2024-03-02T03:04:08;5.75;;;5.28;;
12768;SDS011;6448;48.916;8.990;2024-03-02T03:05:09;5.50;;;5.10;;
12768;SDS011;6448;48.916;8.990;2024-03-02T03:06:11;5.73;;;5.23;;
12768;SDS011;6448;48.916;8.990;2024-03-02T03:07:12;5.80;;;5.40;;
12768;SDS011;6448;48.916;8.990;2024-03-02T03:08:15;5.93;;;5.50;;
12768;SDS011;6448;48.916;8.990;2024-03-02T03:09:16;5.68;;;5.28;;
12768;SDS011;6448;48.916;8.990;2024-03-02T03:10:17;5.80;;;5.40;;
12768;SDS011;6448;48.916;8.990;2024-03-02T03:11:22;5.88;;;5.47;;
12768;SDS011;6448;48.916;8.990;2024-03-02T03:12:24;6.20;;;5.70;;
12768;SDS011;6448;48.916;8.990;2024-03-02T03:13:25;5.95;;;5.55;;
12768;SDS011;6448;48.916;8.990;2024-03-02T03:14:27;6.00;;;5.50;;
12768;SDS011;6448;48.916;8.990;2024-03-02T03:15:28;6.05;;;5.57;;
12768;SDS011;6448;48.916;8.990;2024-03-02T03:16:29;6.03;;;5.63;;
12768;SDS011;6448;48.916;8.990;2024-03-02T03:17:30;6.15;;;5.75;;
12768;SDS011;6448;48.916;8.990;2024-03-02T03:18:31;6.10;;;5.60;;
12768;SDS011;6448;48.916;8.990;2024-03-02T03:19:33;6.18;;;5.68;;
12768;SDS011;6448;48.916;8.990;2024-03-02T03:20:33;5.70;;;5.30;;
12768;SDS011;6448;48.916;8.990;2024-03-02T03:21:35;6.43;;;5.93;;
12768;SDS011;6448;48.916;8.990;2024-03-02T03:22:36;6.13;;;5.63;;
12768;SDS011;6448;48.916;8.990;2024-03-02T03:23:39;6.30;;;5.80;;
12768;SDS011;6448;48.916;8.990;2024-03-02T03:24:40;6.53;;;6.03;;
12768;SDS011;6448;48.916;8.990;2024-03-02T03:25:41;6.05;;;5.55;;
12768;SDS011;6448;48.916;8.990;2024-03-02T03:26:42;6.10;;;5.60;;
12768;SDS011;6448;48.916;8.990;2024-03-02T03:27:44;5.97;;;5.57;;
12768;SDS011;6448;48.916;8.990;2024-03-02T03:28:46;5.65;;;5.25;;
12768;SDS011;6448;48.916;8.990;2024-03-02T03:29:47;6.05;;;5.55;;
12768;SDS011;6448;48.916;8.990;2024-03-02T03:30:48;5.90;;;5.40;;
12768;SDS011;6448;48.916;8.990;2024-03-02T03:31:50;6.20;;;5.70;;
12768;SDS011;6448;48.916;8.990;2024-03-02T03:32:51;6.25;;;5.75;;
12768;SDS011;6448;48.916;8.990;2024-03-02T03:33:53;6.30;;;5.80;;
12768;SDS011;6448;48.916;8.990;2024-03-02T03:34:53;6.63;;;6.13;;
12768;SDS011;6448;48.916;8.990;2024-03-02T03:35:55;5.93;;;5.43;;
12768;SDS011;6448;48.916;8.990;2024-03-02T03:36:56;6.50;;;6.00;;
12768;SDS011;6448;48.916;8.990;2024-03-02T03:37:58;6.25;;;5.75;;
12768;SDS011;6448;48.916;8.990;2024-03-02T03:39:00;6.40;;;5.90;;
12768;SDS011;6448;48.916;8.990;2024-03-02T03:40:03;5.93;;;5.53;;
12768;SDS011;6448;48.916;8.990;2024-03-02T03:41:10;6.05;;;5.60;;
12768;SDS011;6448;48.916;8.990;2024-03-02T03:42:11;6.28;;;5.78;;
12768;SDS011;6448;48.916;8.990;2024-03-02T03:43:12;5.80;;;5.40;;
12768;SDS011;6448;48.916;8.990;2024-03-02T03:44:14;6.22;;;5.78;;
12768;SDS011;6448;48.916;8.990;2024-03-02T03:45:15;6.30;;;5.80;;
12768;SDS011;6448;48.916;8.990;2024-03-02T03:46:16;6.43;;;5.93;;
12768;SDS011;6448;48.916;8.990;2024-03-02T03:47:17;5.82;;;5.38;;
12768;SDS011;6448;48.916;8.990;2024-03-02T03:48:18;6.10;;;5.60;;
12768;SDS011;6448;48.916;8.990;2024-03-02T03:49:20;6.50;;;6.00;;
12768;SDS011;6448;48.916;8.990;2024-03-02T03:50:21;6.20;;;5.70;;
12768;SDS011;6448;48.916;8.990;2024-03-02T03:51:21;6.30;;;5.80;;
12768;SDS011;6448;48.916;8.990;2024-03-02T03:52:23;6.20;;;5.70;;
12768;SDS011;6448;48.916;8.990;2024-03-02T03:53:24;5.88;;;5.47;;
12768;SDS011;6448;48.916;8.990;2024-03-02T03:54:27;6.20;;;5.70;;
12768;SDS011;6448;48.916;8.990;2024-03-02T03:55:28;6.15;;;5.65;;
12768;SDS011;6448;48.916;8.990;2024-03-02T03:56:29;6.50;;;6.00;;
12768;SDS011;6448;48.916;8.990;2024-03-02T03:57:31;6.57;;;6.07;;
12768;SDS011;6448;48.916;8.990;2024-03-02T03:58:32;6.50;;;6.00;;
12768;SDS011;6448;48.916;8.990;2024-03-02T03:59:33;6.20;;;5.80;;
12768;SDS011;6448;48.916;8.990;2024-03-02T04:00:34;6.00;;;5.50;;
12768;SDS011;6448;48.916;8.990;2024-03-02T04:01:35;6.07;;;5.68;;
12768;SDS011;6448;48.916;8.990;2024-03-02T04:02:37;6.68;;;6.18;;
12768;SDS011;6448;48.916;8.990;2024-03-02T04:03:38;6.07;;;5.68;;
12768;SDS011;6448;48.916;8.990;2024-03-02T04:04:40;6.47;;;5.97;;
12768;SDS011;6448;48.916;8.990;2024-03-02T04:05:41;6.55;;;6.05;;
12768;SDS011;6448;48.916;8.990;2024-03-02T04:06:42;6.60;;;6.10;;
12768;SDS011;6448;48.916;8.990;2024-03-02T04:07:43;6.88;;;6.35;;
12768;SDS011;6448;48.916;8.990;2024-03-02T04:08:45;6.47;;;6.03;;
12768;SDS011;6448;48.916;8.990;2024-03-02T04:09:47;6.15;;;5.65;;
12768;SDS011;6448;48.916;8.990;2024-03-02T04:10:48;6.40;;;5.90;;
12768;SDS011;6448;48.916;8.990;2024-03-02T04:11:49;6.20;;;5.70;;
12768;SDS011;6448;48.916;8.990;2024-03-02T04:12:50;6.13;;;5.72;;
12768;SDS011;6448;48.916;8.990;2024-03-02T04:13:52;6.32;;;5.82;;
12768;SDS011;6448;48.916;8.990;2024-03-02T04:14:53;6.60;;;6.10;;
12768;SDS011;6448;48.916;8.990;2024-03-02T04:15:53;6.60;;;6.10;;
12768;SDS011;6448;48.916;8.990;2024-03-02T04:16:55;7.07;;;6.55;;
12768;SDS011;6448;48.916;8.990;2024-03-02T04:17:56;7.10;;;6.50;;
12768;SDS011;6448;48.916;8.990;2024-03-02T04:18:57;6.70;;;6.20;;
12768;SDS011;6448;48.916;8.990;2024-03-02T04:19:59;6.57;;;6.07;;
12768;SDS011;6448;48.916;8.990;2024-03-02T04:21:00;6.57;;;6.07;;
12768;SDS011;6448;48.916;8.990;2024-03-02T04:22:01;6.60;;;6.10;;
12768;SDS011;6448;48.916;8.990;2024-03-02T04:23:03;6.60;;;6.10;;
12768;SDS011;6448;48.916;8.990;2024-03-02T04:24:05;7.10;;;6.60;;
12768;SDS011;6448;48.916;8.990;2024-03-02T04:25:07;6.85;;;6.35;;
12768;SDS011;6448;48.916;8.990;2024-03-02T04:26:09;6.57;;;6.07;;
12768;SDS011;6448;48.916;8.990;2024-03-02T04:27:10;6.70;;;6.20;;
12768;SDS011;6448;48.916;8.990;2024-03-02T04:28:11;6.50;;;6.00;;
12768;SDS011;6448;48.916;8.990;2024-03-02T04:29:13;7.00;;;6.50;;
12768;SDS011;6448;48.916;8.990;2024-03-02T04:30:13;7.40;;;6.80;;
12768;SDS011;6448;48.916;8.990;2024-03-02T04:31:15;6.70;;;6.20;;
12768;SDS011;6448;48.916;8.990;2024-03-02T04:32:16;6.90;;;6.40;;
12768;SDS011;6448;48.916;8.990;2024-03-02T04:33:17;6.90;;;6.40;;
12768;SDS011;6448;48.916;8.990;2024-03-02T04:34:19;7.15;;;6.63;;
12768;SDS011;6448;48.916;8.990;2024-03-02T04:35:20;6.80;;;6.30;;
12768;SDS011;6448;48.916;8.990;2024-03-02T04:36:23;6.72;;;6.22;;
12768;SDS011;6448;48.916;8.990;2024-03-02T04:37:25;6.80;;;6.30;;
12768;SDS011;6448;48.916;8.990;2024-03-02T04:38:26;7.00;;;6.50;;
12768;SDS011;6448;48.916;8.990;2024-03-02T04:39:28;7.30;;;6.80;;
12768;SDS011;6448;48.916;8.990;2024-03-02T04:40:31;6.90;;;6.40;;
12768;SDS011;6448;48.916;8.990;2024-03-02T04:41:33;6.97;;;6.47;;
12768;SDS011;6448;48.916;8.990;2024-03-02T04:42:33;6.80;;;6.30;;
12768;SDS011;6448;48.916;8.990;2024-03-02T04:43:35;7.25;;;6.65;;
12768;SDS011;6448;48.916;8.990;2024-03-02T04:44:36;7.28;;;6.68;;
12768;SDS011;6448;48.916;8.990;2024-03-02T04:45:38;7.35;;;6.85;;
12768;SDS011;6448;48.916;8.990;2024-03-02T04:46:39;7.00;;;6.50;;
12768;SDS011;6448;48.916;8.990;2024-03-02T04:47:40;7.40;;;6.80;;
12768;SDS011;6448;48.916;8.990;2024-03-02T04:48:41;6.88;;;6.38;;
12768;SDS011;6448;48.916;8.990;2024-03-02T04:49:42;6.90;;;6.40;;
12768;SDS011;6448;48.916;8.990;2024-03-02T04:50:44;6.65;;;6.15;;
12768;SDS011;6448;48.916;8.990;2024-03-02T04:51:45;6.60;;;6.10;;
12768;SDS011;6448;48.916;8.990;2024-03-02T04:52:45;6.90;;;6.40;;
12768;SDS011;6448;48.916;8.990;2024-03-02T04:53:47;6.60;;;6.10;;
12768;SDS011;6448;48.916;8.990;2024-03-02T04:54:48;6.60;;;6.10;;
12768;SDS011;6448;48.916;8.990;2024-03-02T04:56:09;6.50;;;6.00;;
12768;SDS011;6448;48.916;8.990;2024-03-02T04:57:24;6.18;;;5.70;;
12768;SDS011;6448;48.916;8.990;2024-03-02T04:58:26;6.60;;;6.10;;
12768;SDS011;6448;48.916;8.990;2024-03-02T04:59:27;6.60;;;6.10;;
12768;SDS011;6448;48.916;8.990;2024-03-02T05:00:28;6.80;;;6.30;;
12768;SDS011;6448;48.916;8.990;2024-03-02T05:01:29;6.93;;;6.43;;
12768;SDS011;6448;48.916;8.990;2024-03-02T05:02:30;6.90;;;6.40;;
12768;SDS011;6448;48.916;8.990;2024-03-02T05:03:32;6.90;;;6.40;;
12768;SDS011;6448;48.916;8.990;2024-03-02T05:04:34;6.85;;;6.35;;
12768;SDS011;6448;48.916;8.990;2024-03-02T05:05:36;6.90;;;6.40;;
12768;SDS011;6448;48.916;8.990;2024-03-02T05:06:38;6.53;;;6.03;;
12768;SDS011;6448;48.916;8.990;2024-03-02T05:07:41;5.97;;;5.57;;
12768;SDS011;6448;48.916;8.990;2024-03-02T05:08:44;6.60;;;6.10;;
12768;SDS011;6448;48.916;8.990;2024-03-02T05:09:45;6.63;;;6.13;;
12768;SDS011;6448;48.916;8.990;2024-03-02T05:10:48;6.45;;;5.95;;
12768;SDS011;6448;48.916;8.990;2024-03-02T05:11:51;6.55;;;6.05;;
12768;SDS011;6448;48.916;8.990;2024-03-02T05:13:22;6.40;;;5.90;;
12768;SDS011;6448;48.916;8.990;2024-03-02T05:14:23;6.23;;;5.73;;
12768;SDS011;6448;48.916;8.990;2024-03-02T05:15:25;6.30;;;5.80;;
12768;SDS011;6448;48.916;8.990;2024-03-02T05:16:26;6.30;;;5.82;;
12768;SDS011;6448;48.916;8.990;2024-03-02T05:17:26;6.63;;;6.13;;
12768;SDS011;6448;48.916;8.990;2024-03-02T05:18:28;6.70;;;6.20;;
12768;SDS011;6448;48.916;8.990;2024-03-02T05:19:29;7.07;;;6.53;;
12768;SDS011;6448;48.916;8.990;2024-03-02T05:20:31;7.05;;;6.55;;
12768;SDS011;6448;48.916;8.990;2024-03-02T05:21:31;6.57;;;6.07;;
12768;SDS011;6448;48.916;8.990;2024-03-02T05:22:32;7.03;;;6.53;;
12768;SDS011;6448;48.916;8.990;2024-03-02T05:23:34;7.45;;;6.85;;
12768;SDS011;6448;48.916;8.990;2024-03-02T05:24:35;6.75;;;6.25;;
12768;SDS011;6448;48.916;8.990;2024-03-02T05:25:36;7.07;;;6.57;;
12768;SDS011;6448;48.916;8.990;2024-03-02T05:26:37;7.15;;;6.60;;
12768;SDS011;6448;48.916;8.990;2024-03-02T05:27:40;6.93;;;6.43;;
12768;SDS011;6448;48.916;8.990;2024-03-02T05:28:41;6.65;;;6.15;;
12768;SDS011;6448;48.916;8.990;2024-03-02T05:29:43;6.72;;;6.22;;
12768;SDS011;6448;48.916;8.990;2024-03-02T05:30:44;6.80;;;6.30;;
12768;SDS011;6448;48.916;8.990;2024-03-02T05:31:46;7.05;;;6.55;;
12768;SDS011;6448;48.916;8.990;2024-03-02T05:32:47;6.72;;;6.22;;
12768;SDS011;6448;48.916;8.990;2024-03-02T05:33:48;7.30;;;6.70;;
12768;SDS011;6448;48.916;8.990;2024-03-02T05:34:49;6.80;;;6.30;;
12768;SDS011;6448;48.916;8.990;2024-03-02T05:35:51;6.55;;;6.05;;
12768;SDS011;6448;48.916;8.990;2024-03-02T05:36:52;6.80;;;6.30;;
12768;SDS011;6448;48.916;8.990;2024-03-02T05:37:54;7.10;;;6.50;;
12768;SDS011;6448;48.916;8.990;2024-03-02T05:38:55;7.00;;;6.50;;
12768;SDS011;6448;48.916;8.990;2024-03-02T05:40:00;6.85;;;6.35;;
12768;SDS011;6448;48.916;8.990;2024-03-02T05:41:01;6.50;;;6.00;;
12768;SDS011;6448;48.916;8.990;2024-03-02T05:42:03;6.63;;;6.13;;
12768;SDS011;6448;48.916;8.990;2024-03-02T05:43:06;6.68;;;6.18;;
12768;SDS011;6448;48.916;8.990;2024-03-02T05:44:07;7.28;;;6.68;;
12768;SDS011;6448;48.916;8.990;2024-03-02T05:45:08;7.00;;;6.40;;
12768;SDS011;6448;48.916;8.990;2024-03-02T05:46:10;7.25;;;6.65;;
12768;SDS011;6448;48.916;8.990;2024-03-02T05:47:12;6.97;;;6.47;;
12768;SDS011;6448;48.916;8.990;2024-03-02T05:48:12;7.30;;;6.70;;
12768;SDS011;6448;48.916;8.990;2024-03-02T05:49:14;6.90;;;6.40;;
12768;SDS011;6448;48.916;8.990;2024-03-02T05:50:15;7.30;;;6.75;;
12768;SDS011;6448;48.916;8.990;2024-03-02T05:51:15;7.18;;;6.57;;
12768;SDS011;6448;48.916;8.990;2024-03-02T05:52:17;7.15;;;6.55;;
12768;SDS011;6448;48.916;8.990;2024-03-02T05:53:18;7.10;;;6.60;;
12768;SDS011;6448;48.916;8.990;2024-03-02T05:54:19;7.10;;;6.60;;
12768;SDS011;6448;48.916;8.990;2024-03-02T05:55:20;6.57;;;6.07;;
12768;SDS011;6448;48.916;8.990;2024-03-02T05:56:21;6.95;;;6.45;;
12768;SDS011;6448;48.916;8.990;2024-03-02T05:57:23;6.78;;;6.28;;
12768;SDS011;6448;48.916;8.990;2024-03-02T05:58:40;6.60;;;6.10;;
12768;SDS011;6448;48.916;8.990;2024-03-02T05:59:53;6.78;;;6.28;;
12768;SDS011;6448;48.916;8.990;2024-03-02T06:00:54;7.03;;;6.53;;
12768;SDS011;6448;48.916;8.990;2024-03-02T06:01:56;6.50;;;6.00;;
12768;SDS011;6448;48.916;8.990;2024-03-02T06:02:57;7.18;;;6.68;;
12768;SDS011;6448;48.916;8.990;2024-03-02T06:03:58;6.93;;;6.32;;
12768;SDS011;6448;48.916;8.990;2024-03-02T06:04:59;7.03;;;6.53;;
12768;SDS011;6448;48.916;8.990;2024-03-02T06:06:00;7.22;;;6.63;;
12768;SDS011;6448;48.916;8.990;2024-03-02T06:07:02;7.32;;;6.80;;
12768;SDS011;6448;48.916;8.990;2024-03-02T06:08:03;6.80;;;6.30;;
12768;SDS011;6448;48.916;8.990;2024-03-02T06:09:05;7.00;;;6.50;;
12768;SDS011;6448;48.916;8.990;2024-03-02T06:10:08;7.20;;;6.60;;
12768;SDS011;6448;48.916;8.990;2024-03-02T06:11:11;6.70;;;6.20;;
12768;SDS011;6448;48.916;8.990;2024-03-02T06:12:11;7.00;;;6.50;;
12768;SDS011;6448;48.916;8.990;2024-03-02T06:13:13;6.78;;;6.28;;
12768;SDS011;6448;48.916;8.990;2024-03-02T06:14:15;6.72;;;6.22;;
12768;SDS011;6448;48.916;8.990;2024-03-02T06:15:17;6.90;;;6.32;;
12768;SDS011;6448;48.916;8.990;2024-03-02T06:16:18;7.20;;;6.68;;
12768;SDS011;6448;48.916;8.990;2024-03-02T06:17:20;7.00;;;6.50;;
12768;SDS011;6448;48.916;8.990;2024-03-02T06:18:21;6.80;;;6.30;;
12768;SDS011;6448;48.916;8.990;2024-03-02T06:19:23;6.88;;;6.38;;
12768;SDS011;6448;48.916;8.990;2024-03-02T06:20:23;7.05;;;6.55;;
12768;SDS011;6448;48.916;8.990;2024-03-02T06:21:27;7.03;;;6.53;;